Strona główna
METAR-TAF:

METAR-TAF

Lotnisko :

Baker Municipal Airport

Baker, Montana, Stany Zjednoczone

Szerokość geograficzna: 46-20-52N, Długość geograficzna: 104-15-27W, wysokość: 905 m

Aktualna obserwacja pogody

Raport powstał 38 minut temu, godzina 21:51 UTC
Wiatr 3 kt od wschodnio-południowy wschód
Temperatura 2°C
Wilgotność 75%
Ciśnienie 1008 hPa
Widzialność: 16.1 km
Mało chmury na wysokości 7000 ft
Przerywane chmury na wysokości 8500 ft

METAR: KBHK 122151Z AUTO 11003KT 10SM FEW070 BKN085 02/M02 A2977 RMK AO2 SLP106 T00171022

czas: 15:29 (22:29 UTC)


TAF: brakujący

Obserwacja i prognoza pogody dla ponad 4000 lotnisk (raport METAR i TAF).

Dostępne stacje oznaczono żółtymi i czerwonymi punktami na mapie.

Najedź kursorem aby zobaczyć nazwę stacji.

Kliknij aby zobaczyć obserwacje i prognozy pogody.

Aby zmienić mapę: kliknij na zielony przycisk z czarnym krzyżykiem, aby powiększyć; na zielony przycisk z myślnikiem, aby pomniejszyć; na zielone strzałki, aby przejść do map sąsiednich.


METAR-TAF: